Time;durP1;ratioP1;P1;durP2;ratioP2;P2;SDS_P1;SDS_P2;PMS_P1;PMS_P2;Temp;Humidity;BMP_temperature;BMP_pressure;BME280_temperature;BME280_humidity;BME280_pressure;Samples;Min_cycle;Max_cycle;Signal;HPM_P1;HPM_P2
2022/12/15 00:41:58;;;;;;;5.65;1.48;;;-1.70;99.90;;;;;;6303911;22;20028;-91
2022/12/15 00:44:23;;;;;;;4.85;1.85;;;-1.70;99.90;;;;;;6225484;22;20020;-91
2022/12/15 00:46:53;;;;;;;3.85;1.50;;;-1.80;99.90;;;;;;6225304;22;20095;-91
2022/12/15 02:15:24;;;;;;;2.70;0.90;;;-1.60;99.90;;;;;;6256250;22;20024;-92
2022/12/15 02:40:28;;;;;;;3.65;1.30;;;-1.30;99.90;;;;;;6280480;22;20031;-94
2022/12/15 02:42:57;;;;;;;5.20;1.40;;;-1.40;99.90;;;;;;6253208;22;20326;-90
2022/12/15 02:45:53;;;;;;;2.72;0.88;;;-1.30;99.90;;;;;;6252194;22;20019;-90
2022/12/15 02:48:21;;;;;;;2.83;0.90;;;-1.30;99.90;;;;;;6251613;22;20073;-90
2022/12/15 02:51:04;;;;;;;1.85;0.50;;;-1.10;99.90;;;;;;6251993;22;20449;-90
2022/12/15 02:53:50;;;;;;;2.75;0.57;;;-1.00;99.90;;;;;;6251653;22;20020;-90
2022/12/15 02:56:48;;;;;;;2.95;0.70;;;-0.90;99.90;;;;;;6251885;22;20020;-91
2022/12/15 02:59:35;;;;;;;1.75;0.80;;;-0.70;99.90;;;;;;6251891;22;20023;-91
2022/12/15 03:02:05;;;;;;;1.95;0.60;;;-0.70;99.90;;;;;;6252353;22;20015;-91
2022/12/15 03:04:32;;;;;;;2.38;0.75;;;-0.60;99.90;;;;;;6252333;22;20020;-89
2022/12/15 03:07:02;;;;;;;3.63;0.73;;;-0.60;99.90;;;;;;6252412;22;20024;-94
2022/12/15 03:09:29;;;;;;;3.80;0.70;;;-0.60;99.90;;;;;;6252286;22;20027;-92
2022/12/15 03:17:06;;;;;;;2.90;0.98;;;-0.70;99.90;;;;;;6278523;22;20023;-93
2022/12/15 03:28:24;;;;;;;3.90;1.13;;;-0.90;99.90;;;;;;6279630;22;20077;-91
2022/12/15 03:30:49;;;;;;;4.00;1.00;;;-1.00;99.90;;;;;;6226888;22;20023;-91
2022/12/15 03:33:15;;;;;;;3.03;1.15;;;-1.10;99.90;;;;;;6226661;22;20019;-90
2022/12/15 03:35:41;;;;;;;5.13;1.13;;;-1.10;99.90;;;;;;6226566;22;20023;-91
2022/12/15 03:38:07;;;;;;;3.35;0.93;;;-1.10;99.90;;;;;;6226582;22;20246;-95
2022/12/15 04:04:23;;;;;;;1.98;0.73;;;-1.30;99.90;;;;;;6249470;22;20020;-89
2022/12/15 04:06:49;;;;;;;3.50;0.63;;;-1.20;99.90;;;;;;6173221;23;20024;-90
2022/12/15 04:09:15;;;;;;;3.22;0.85;;;-1.20;99.90;;;;;;6197749;23;20042;-90
2022/12/15 04:11:40;;;;;;;2.70;0.93;;;-1.20;99.90;;;;;;6198063;23;20045;-93
2022/12/15 04:14:09;;;;;;;1.90;0.63;;;-1.20;99.90;;;;;;6198758;23;20012;-90
2022/12/15 04:16:35;;;;;;;1.85;0.60;;;-1.20;99.90;;;;;;6199171;23;20510;-90
2022/12/15 04:21:45;;;;;;;3.40;0.75;;;-1.20;99.90;;;;;;6222923;23;20032;-90
2022/12/15 05:32:07;;;;;;;3.33;1.00;;;-1.20;99.90;;;;;;6281175;22;20023;-91
2022/12/15 05:34:34;;;;;;;2.25;0.40;;;-1.20;99.90;;;;;;6255947;22;20353;-90
2022/12/15 05:37:01;;;;;;;2.00;0.70;;;-1.10;99.90;;;;;;6255505;22;20019;-90
2022/12/15 05:39:28;;;;;;;2.83;1.02;;;-1.10;99.90;;;;;;6255662;22;20453;-89
2022/12/15 05:41:55;;;;;;;2.67;1.10;;;-1.00;99.90;;;;;;6255303;22;20033;-89
2022/12/15 05:44:23;;;;;;;4.13;1.00;;;-1.00;99.90;;;;;;6255648;22;20016;-90
2022/12/15 05:46:49;;;;;;;3.63;1.23;;;-1.00;99.90;;;;;;6255307;22;20517;-91
2022/12/15 05:49:16;;;;;;;6.30;1.45;;;-1.00;99.90;;;;;;6255898;22;20011;-90
2022/12/15 05:51:42;;;;;;;;;;;-0.90;99.90;;;;;;6256136;22;20444;-92
2022/12/15 05:54:09;;;;;;;2.85;1.20;;;-0.90;99.90;;;;;;6256614;22;19961;-94
2022/12/15 05:56:35;;;;;;;;;;;-0.90;99.90;;;;;;6256591;22;20019;-90
2022/12/15 05:59:01;;;;;;;4.13;1.10;;;-0.90;99.90;;;;;;6255881;22;19965;-90
2022/12/15 06:01:29;;;;;;;3.53;1.40;;;-0.80;99.90;;;;;;6255453;22;20019;-91
2022/12/15 06:03:55;;;;;;;3.92;1.40;;;-0.80;99.90;;;;;;6255641;22;20090;-91
2022/12/15 06:06:21;;;;;;;4.82;1.80;;;-0.80;99.90;;;;;;6255621;22;20023;-93
2022/12/15 06:08:47;;;;;;;3.80;1.52;;;-0.80;99.90;;;;;;6255284;22;20034;-90
2022/12/15 06:11:15;;;;;;;4.45;1.48;;;-0.70;99.90;;;;;;6259683;22;20425;-91
2022/12/15 06:13:41;;;;;;;5.43;1.50;;;-0.70;99.90;;;;;;6260315;22;20019;-90
2022/12/15 06:16:14;;;;;;;4.57;1.70;;;-0.70;99.90;;;;;;6258482;22;20019;-91
2022/12/15 06:18:49;;;;;;;2.92;1.50;;;-0.60;99.90;;;;;;6258092;22;20509;-93
2022/12/15 06:21:34;;;;;;;4.30;1.70;;;-0.60;99.90;;;;;;6257550;22;20019;-95
2022/12/15 06:24:04;;;;;;;6.53;3.25;;;-0.60;99.90;;;;;;6257474;22;20015;-91
2022/12/15 06:26:32;;;;;;;5.55;1.48;;;-0.60;99.90;;;;;;6257131;22;20015;-90
2022/12/15 06:29:01;;;;;;;8.13;2.15;;;-0.60;99.90;;;;;;6257467;22;20018;-90
2022/12/15 06:31:31;;;;;;;5.13;1.45;;;-0.50;99.90;;;;;;6257381;22;20043;-92
2022/12/15 06:34:10;;;;;;;4.13;1.50;;;-0.50;99.90;;;;;;6257898;22;20391;-93
2022/12/15 06:36:36;;;;;;;5.80;1.83;;;-0.50;99.90;;;;;;6257376;22;20015;-89
2022/12/15 06:39:25;;;;;;;5.18;1.50;;;-0.40;99.90;;;;;;6258177;22;20467;-93
2022/12/15 06:42:51;;;;;;;;;;;;;;;;;;;;;
2022/12/15 06:45:53;;;;;;;3.50;1.70;;;-0.40;99.90;;;;;;6283375;22;20459;-94
2022/12/15 06:48:21;;;;;;;8.57;1.52;;;-0.30;99.90;;;;;;6282048;22;20015;-92
2022/12/15 08:18:22;;;;;;;4.38;1.20;;;0.50;99.90;;;;;;6320145;22;20027;-96
2022/12/15 08:20:52;;;;;;;5.32;2.00;;;0.40;99.90;;;;;;6318743;22;20022;-92
2022/12/15 08:23:18;;;;;;;4.00;1.48;;;0.50;99.90;;;;;;6319098;22;20111;-95
2022/12/15 08:26:06;;;;;;;8.70;1.90;;;0.50;99.90;;;;;;6344597;22;20408;-94
2022/12/15 08:38:56;;;;;;;4.85;1.80;;;0.50;99.90;;;;;;6353129;22;20022;-91
2022/12/15 08:41:25;;;;;;;9.77;1.63;;;0.50;99.90;;;;;;6321264;22;20022;-93
2022/12/15 08:43:56;;;;;;;3.75;1.60;;;0.50;99.90;;;;;;6319259;22;20021;-93
2022/12/15 08:46:39;;;;;;;5.07;1.70;;;0.60;99.90;;;;;;6319333;22;20018;-92
2022/12/15 08:51:53;;;;;;;7.95;2.47;;;0.60;99.90;;;;;;6302351;22;20018;-92
2022/12/15 08:54:20;;;;;;;4.47;1.98;;;0.60;99.90;;;;;;6318059;22;20060;-93
2022/12/15 08:56:58;;;;;;;5.30;2.17;;;0.60;99.90;;;;;;6347260;22;20014;-95
2022/12/15 08:59:37;;;;;;;4.57;2.08;;;0.60;99.90;;;;;;6324914;22;20011;-95
2022/12/15 09:02:58;;;;;;;5.22;1.90;;;0.60;99.90;;;;;;6296790;22;20127;-94
2022/12/15 09:05:27;;;;;;;8.65;1.95;;;0.60;99.90;;;;;;6194877;23;20033;-92
2022/12/15 09:08:11;;;;;;;4.38;2.03;;;0.70;99.90;;;;;;6185889;22;20015;-95
2022/12/15 09:10:51;;;;;;;4.70;1.55;;;0.70;99.90;;;;;;6239020;22;20026;-91
2022/12/15 09:21:04;;;;;;;5.60;2.00;;;0.80;99.90;;;;;;6281280;22;20348;-90
2022/12/15 09:23:31;;;;;;;4.55;2.03;;;0.80;99.90;;;;;;6229588;22;20016;-89
2022/12/15 09:26:49;;;;;;;;;;;;;;;;;;;;;
2022/12/15 09:29:33;;;;;;;4.57;1.98;;;0.80;99.90;;;;;;6262116;22;20091;-89
2022/12/15 09:31:59;;;;;;;6.13;2.00;;;0.90;99.90;;;;;;6225824;22;20058;-89
2022/12/15 09:34:29;;;;;;;5.03;1.50;;;0.90;99.90;;;;;;6200794;22;20016;-92
2022/12/15 09:36:55;;;;;;;8.85;1.92;;;0.90;99.90;;;;;;6200894;22;20012;-90
2022/12/15 09:39:23;;;;;;;5.82;2.35;;;0.90;99.90;;;;;;6201817;22;20020;-91
2022/12/15 09:47:18;;;;;;;7.13;2.47;;;1.00;99.90;;;;;;6309851;22;20024;-93
2022/12/15 09:50:03;;;;;;;7.28;2.05;;;1.00;99.90;;;;;;6283221;22;20026;-89
2022/12/15 10:20:42;;;;;;;6.22;1.92;;;1.40;99.90;;;;;;6313160;22;20030;-91
2022/12/15 10:26:54;;;;;;;5.65;1.95;;;1.50;99.90;;;;;;6295742;22;20456;-91
2022/12/15 10:29:42;;;;;;;4.07;2.13;;;1.50;99.90;;;;;;6282791;22;20011;-91
2022/12/15 10:32:17;;;;;;;6.50;2.50;;;1.50;99.90;;;;;;6288277;22;20014;-90
2022/12/15 10:34:50;;;;;;;7.25;2.20;;;1.50;99.90;;;;;;6287526;22;20516;-91
2022/12/15 10:37:19;;;;;;;5.25;2.20;;;1.50;99.90;;;;;;6288664;22;20011;-93
2022/12/15 10:39:47;;;;;;;6.80;2.20;;;1.50;99.90;;;;;;6313493;22;20011;-89
2022/12/15 11:14:55;;;;;;;6.25;1.98;;;2.10;99.90;;;;;;6307899;22;20022;-89
2022/12/15 11:17:26;;;;;;;4.45;1.73;;;2.20;99.90;;;;;;6255891;22;20098;-89
2022/12/15 11:20:05;;;;;;;5.85;2.22;;;2.20;99.90;;;;;;6282709;22;20025;-89
2022/12/15 11:22:50;;;;;;;6.65;2.15;;;2.30;99.90;;;;;;6282228;22;20015;-89
2022/12/15 11:25:43;;;;;;;8.65;2.65;;;2.30;99.90;;;;;;6282410;22;20055;-89
2022/12/15 11:28:17;;;;;;;5.95;2.78;;;2.40;99.90;;;;;;6282516;22;20016;-90
2022/12/15 11:30:55;;;;;;;5.88;2.70;;;2.40;99.90;;;;;;6282098;22;20360;-89
2022/12/15 11:33:21;;;;;;;19.10;6.00;;;2.40;99.90;;;;;;6282254;22;20047;-91
2022/12/15 11:36:06;;;;;;;5.82;2.10;;;2.40;99.90;;;;;;6256364;22;20026;-88
2022/12/15 11:39:06;;;;;;;17.63;7.60;;;2.50;99.90;;;;;;6281827;22;20053;-88
2022/12/15 11:41:38;;;;;;;68.53;23.70;;;2.50;99.90;;;;;;6281716;22;20068;-89
2022/12/15 11:44:23;;;;;;;6.47;3.03;;;2.60;99.90;;;;;;6281922;22;20011;-89
2022/12/15 12:00:02;;;;;;;4.55;1.88;;;2.80;99.90;;;;;;6277683;22;20066;-90
2022/12/15 12:08:12;;;;;;;5.70;1.95;;;2.90;99.90;;;;;;6328019;22;20019;-92
2022/12/15 12:13:38;;;;;;;5.75;2.03;;;2.90;99.90;;;;;;6307691;22;20023;-89
2022/12/15 12:16:14;;;;;;;4.53;1.75;;;2.90;99.90;;;;;;6281821;22;20030;-89
2022/12/15 12:24:02;;;;;;;5.75;2.42;;;2.90;99.90;;;;;;6277637;22;20464;-88
2022/12/15 12:26:39;;;;;;;6.63;2.13;;;2.90;99.90;;;;;;6225343;22;20020;-91
2022/12/15 12:29:17;;;;;;;4.97;1.98;;;2.90;99.90;;;;;;6225780;22;20055;-90
2022/12/15 12:31:54;;;;;;;4.05;1.60;;;2.90;99.90;;;;;;6225216;22;20011;-90
2022/12/15 12:34:54;;;;;;;4.32;1.75;;;3.00;99.90;;;;;;6225072;22;20015;-92
2022/12/15 12:37:37;;;;;;;6.82;1.83;;;3.00;99.90;;;;;;6225238;22;20034;-90
2022/12/15 12:40:30;;;;;;;4.35;1.63;;;3.10;99.90;;;;;;6225621;22;20049;-90
2022/12/15 12:42:58;;;;;;;4.32;1.42;;;3.10;99.90;;;;;;6223661;22;20103;-89
2022/12/15 12:45:36;;;;;;;3.15;1.27;;;3.10;99.90;;;;;;6225264;22;20020;-90
2022/12/15 12:48:17;;;;;;;4.68;1.50;;;3.10;99.90;;;;;;6225207;22;20019;-88
2022/12/15 12:50:43;;;;;;;4.50;1.48;;;3.10;99.90;;;;;;6225253;22;20027;-89
2022/12/15 12:53:30;;;;;;;6.03;2.10;;;3.20;99.90;;;;;;6200423;22;20016;-91
2022/12/15 12:55:56;;;;;;;8.30;2.13;;;3.20;99.90;;;;;;6225043;22;20014;-89
2022/12/15 12:58:41;;;;;;;4.90;1.65;;;3.20;99.90;;;;;;6225003;22;20055;-90
2022/12/15 13:01:13;;;;;;;6.28;1.80;;;3.30;99.90;;;;;;6224767;22;20015;-90
2022/12/15 13:03:42;;;;;;;6.03;1.80;;;3.30;99.90;;;;;;6224777;22;20012;-90
2022/12/15 13:06:33;;;;;;;5.25;1.55;;;3.30;99.90;;;;;;6225363;22;20019;-89
2022/12/15 13:09:21;;;;;;;4.47;1.55;;;3.20;99.90;;;;;;6225502;22;20061;-89
2022/12/15 13:11:57;;;;;;;5.53;1.92;;;3.30;99.90;;;;;;6225073;22;20516;-88
2022/12/15 13:14:30;;;;;;;6.03;1.95;;;3.30;99.90;;;;;;6225488;22;20023;-89
2022/12/15 13:17:02;;;;;;;6.10;1.95;;;3.30;99.90;;;;;;6225195;22;20011;-90
2022/12/15 13:19:57;;;;;;;4.75;1.35;;;3.30;99.90;;;;;;6225612;22;20051;-91
2022/12/15 13:22:27;;;;;;;5.35;1.88;;;3.30;99.90;;;;;;6122146;22;20017;-90
2022/12/15 13:24:55;;;;;;;4.07;1.85;;;3.30;99.90;;;;;;6240184;22;20019;-90
2022/12/15 13:27:35;;;;;;;3.38;1.27;;;3.40;99.90;;;;;;6252558;22;20445;-89
2022/12/15 13:33:17;;;;;;;5.75;1.75;;;3.30;99.90;;;;;;6297835;22;20030;-88
2022/12/15 13:35:58;;;;;;;4.78;1.60;;;3.30;99.90;;;;;;6182736;23;20393;-89
2022/12/15 13:46:28;;;;;;;4.57;2.05;;;3.20;99.90;;;;;;6278849;22;20027;-90
2022/12/15 13:49:25;;;;;;;7.30;1.60;;;3.20;99.90;;;;;;6252183;22;20024;-90
2022/12/15 13:52:27;;;;;;;3.67;1.40;;;3.10;99.90;;;;;;6272751;22;20047;-91
2022/12/15 14:01:46;;;;;;;7.03;1.90;;;3.00;99.90;;;;;;6272550;22;20028;-88
2022/12/15 14:04:15;;;;;;;5.57;1.60;;;2.90;99.90;;;;;;6226538;22;20015;-88
2022/12/15 14:12:26;;;;;;;6.60;1.73;;;2.90;99.90;;;;;;6306392;22;20023;-90
2022/12/15 14:15:11;;;;;;;4.10;1.52;;;2.80;99.90;;;;;;6279191;22;20067;-89
2022/12/15 14:17:39;;;;;;;4.15;1.35;;;2.80;99.90;;;;;;6234381;22;20081;-90
2022/12/15 14:20:32;;;;;;;3.95;1.60;;;2.80;99.90;;;;;;6256769;22;20011;-91
2022/12/15 14:31:52;;;;;;;5.25;1.75;;;2.70;99.90;;;;;;6283978;22;20090;-90
2022/12/15 14:34:34;;;;;;;5.88;2.00;;;2.70;99.90;;;;;;6256640;22;20030;-90
2022/12/15 14:37:04;;;;;;;6.25;1.88;;;2.70;99.90;;;;;;6256878;22;20060;-89
2022/12/15 14:39:43;;;;;;;5.00;1.80;;;2.70;99.90;;;;;;6256598;22;20026;-90
2022/12/15 14:42:29;;;;;;;5.22;2.10;;;2.70;99.90;;;;;;6256159;22;20019;-89
2022/12/15 14:44:56;;;;;;;6.32;1.83;;;2.70;99.90;;;;;;6256983;22;20018;-91
2022/12/15 14:47:25;;;;;;;6.18;1.92;;;2.70;99.90;;;;;;6256556;22;20054;-89
2022/12/15 14:49:57;;;;;;;5.38;1.92;;;2.70;99.90;;;;;;6256122;22;20386;-87
2022/12/15 14:52:26;;;;;;;3.20;1.67;;;2.70;99.90;;;;;;6256811;22;20448;-91
2022/12/15 14:55:00;;;;;;;8.27;2.30;;;2.60;99.90;;;;;;6256260;22;20015;-88
2022/12/15 14:57:50;;;;;;;7.85;2.30;;;2.60;99.90;;;;;;6256783;22;20019;-88
2022/12/15 15:00:30;;;;;;;5.63;2.30;;;2.60;99.90;;;;;;6255871;22;20513;-85
2022/12/15 15:03:14;;;;;;;12.18;3.10;;;2.60;99.90;;;;;;6282012;22;20041;-89
2022/12/15 15:05:45;;;;;;;7.47;2.70;;;2.60;99.90;;;;;;6256693;22;20057;-94
2022/12/15 15:08:27;;;;;;;6.03;2.33;;;2.60;99.90;;;;;;6282242;22;20109;-90
2022/12/15 15:10:58;;;;;;;6.18;2.78;;;2.70;99.90;;;;;;6256363;22;20445;-91
2022/12/15 15:13:29;;;;;;;7.72;2.88;;;2.60;99.90;;;;;;6256692;22;20104;-91
2022/12/15 15:16:05;;;;;;;8.30;2.60;;;2.60;99.90;;;;;;6256273;22;20034;-90
2022/12/15 15:18:31;;;;;;;6.90;3.03;;;2.60;99.90;;;;;;6255613;22;20081;-89
2022/12/15 15:21:05;;;;;;;8.27;2.05;;;2.60;99.90;;;;;;6255850;22;20026;-89
2022/12/15 15:23:31;;;;;;;5.45;2.28;;;2.60;99.90;;;;;;6256543;22;20086;-87
2022/12/15 15:26:07;;;;;;;5.63;2.08;;;2.60;99.90;;;;;;6256192;22;20444;-90
2022/12/15 15:28:41;;;;;;;7.45;2.35;;;2.60;99.90;;;;;;6256644;22;20020;-89
2022/12/15 15:31:36;;;;;;;6.45;2.42;;;2.60;99.90;;;;;;6256614;22;20169;-92
2022/12/15 15:34:03;;;;;;;21.27;7.32;;;2.60;99.90;;;;;;6256408;22;20030;-89
2022/12/15 15:36:49;;;;;;;77.63;25.20;;;2.60;99.90;;;;;;6256146;22;20011;-88
2022/12/15 15:39:15;;;;;;;349.35;118.93;;;2.50;99.90;;;;;;6256186;22;20345;-91
2022/12/15 15:41:41;;;;;;;775.72;412.88;;;2.50;99.90;;;;;;6281531;22;20023;-89
2022/12/15 15:44:32;;;;;;;65.47;50.20;;;2.40;99.90;;;;;;6256323;22;20021;-89
2022/12/15 15:46:58;;;;;;;29.30;25.10;;;2.30;99.90;;;;;;6254158;22;20019;-88
2022/12/15 15:49:24;;;;;;;13.57;9.23;;;2.30;99.90;;;;;;6256316;22;20015;-93
2022/12/15 15:51:50;;;;;;;11.27;7.43;;;2.30;99.90;;;;;;6231215;22;20049;-91
2022/12/15 15:54:21;;;;;;;10.48;5.88;;;2.20;99.90;;;;;;6255896;22;20015;-90
2022/12/15 15:56:46;;;;;;;9.95;6.60;;;2.10;99.90;;;;;;6256077;22;20026;-89
2022/12/15 15:59:20;;;;;;;7.82;4.70;;;2.00;99.90;;;;;;6256174;22;20011;-91
2022/12/15 16:01:54;;;;;;;7.65;4.43;;;1.90;99.90;;;;;;6256640;22;20015;-89
2022/12/15 16:04:20;;;;;;;9.05;4.57;;;1.90;99.90;;;;;;6256279;22;20043;-92
2022/12/15 16:06:47;;;;;;;15.48;7.30;;;1.80;99.90;;;;;;6231409;22;20023;-91
2022/12/15 16:09:14;;;;;;;8.38;4.43;;;1.70;99.90;;;;;;6255879;22;20022;-91
2022/12/15 16:11:40;;;;;;;8.90;3.67;;;1.70;99.90;;;;;;6256093;22;20086;-91
2022/12/15 16:14:14;;;;;;;11.07;4.30;;;1.60;99.90;;;;;;6255969;22;20015;-91
2022/12/15 16:16:43;;;;;;;21.48;12.27;;;1.60;99.90;;;;;;6256107;22;20015;-89
2022/12/15 16:19:10;;;;;;;116.57;53.70;;;1.60;99.90;;;;;;6280978;22;20015;-88
2022/12/15 16:21:38;;;;;;;76.03;29.42;;;1.50;99.90;;;;;;6255587;22;20026;-90
2022/12/15 16:24:12;;;;;;;51.53;24.27;;;1.60;99.90;;;;;;6255815;22;20345;-94
2022/12/15 16:26:42;;;;;;;38.85;18.75;;;1.60;99.90;;;;;;6255669;22;20137;-94
2022/12/15 16:29:14;;;;;;;11.75;6.43;;;1.60;99.90;;;;;;6231270;22;20023;-95
2022/12/15 16:31:44;;;;;;;13.10;6.30;;;1.60;99.90;;;;;;6255544;22;20085;-88
2022/12/15 16:34:11;;;;;;;20.92;14.35;;;1.60;99.90;;;;;;6255393;22;20072;-91
2022/12/15 16:36:38;;;;;;;18.10;13.85;;;1.60;99.90;;;;;;6255509;22;20080;-92
2022/12/15 16:39:04;;;;;;;18.73;15.63;;;1.60;99.90;;;;;;6255575;22;20041;-94
2022/12/15 16:41:32;;;;;;;12.07;8.98;;;1.70;99.90;;;;;;6255393;22;20058;-90
2022/12/15 16:43:57;;;;;;;20.15;13.88;;;1.60;99.90;;;;;;6256092;22;20089;-91
2022/12/15 16:46:23;;;;;;;14.73;11.57;;;1.60;99.90;;;;;;6255871;22;20019;-87
2022/12/15 16:48:49;;;;;;;12.77;8.43;;;1.70;99.90;;;;;;6280835;22;20469;-93
2022/12/15 16:51:32;;;;;;;10.85;5.35;;;1.70;99.90;;;;;;6255435;22;20090;-94
2022/12/15 16:53:58;;;;;;;9.13;4.00;;;1.60;99.90;;;;;;6281197;22;20022;-94
2022/12/15 16:56:24;;;;;;;10.90;5.18;;;1.70;99.90;;;;;;6255035;22;20043;-88
2022/12/15 16:58:49;;;;;;;15.27;7.35;;;1.60;99.90;;;;;;6255516;22;20444;-94
2022/12/15 17:01:15;;;;;;;7.68;4.30;;;1.70;99.90;;;;;;6255572;22;20015;-92
2022/12/15 17:03:41;;;;;;;11.43;5.57;;;1.60;99.90;;;;;;6255636;22;20026;-89
2022/12/15 17:06:12;;;;;;;10.20;4.20;;;1.60;99.90;;;;;;6255457;22;20440;-87
2022/12/15 17:08:42;;;;;;;11.20;5.43;;;1.70;99.90;;;;;;6255339;22;20019;-93
2022/12/15 17:11:15;;;;;;;10.98;5.38;;;1.70;99.90;;;;;;6255909;22;20116;-93
2022/12/15 17:13:43;;;;;;;7.65;4.10;;;1.70;99.90;;;;;;6255163;22;20015;-88
2022/12/15 17:16:12;;;;;;;22.98;17.55;;;1.60;99.90;;;;;;6255365;22;20015;-92
2022/12/15 17:18:40;;;;;;;11.35;5.57;;;1.60;99.90;;;;;;6255548;22;20015;-93
2022/12/15 17:21:15;;;;;;;13.65;8.70;;;1.60;99.90;;;;;;6255600;22;20082;-89
2022/12/15 17:23:46;;;;;;;14.52;8.35;;;1.60;99.90;;;;;;6239328;22;20081;-91
2022/12/15 17:26:23;;;;;;;9.18;4.38;;;1.60;99.90;;;;;;6255949;22;20085;-94
2022/12/15 17:28:49;;;;;;;11.00;5.03;;;1.50;99.90;;;;;;6255478;22;20019;-96
2022/12/15 17:31:19;;;;;;;9.70;4.55;;;1.50;99.90;;;;;;6281424;22;20015;-94
2022/12/15 17:33:46;;;;;;;9.82;4.82;;;1.50;99.90;;;;;;6255404;22;20015;-89
2022/12/15 17:36:22;;;;;;;9.45;4.28;;;1.50;99.90;;;;;;6255199;22;20405;-94
2022/12/15 17:39:01;;;;;;;9.57;4.70;;;1.50;99.90;;;;;;6255405;22;20321;-93
2022/12/15 17:41:27;;;;;;;8.90;4.22;;;1.50;99.90;;;;;;6255196;22;20068;-92
2022/12/15 17:43:53;;;;;;;10.93;5.28;;;1.40;99.90;;;;;;6280873;22;20047;-96
2022/12/15 17:46:19;;;;;;;11.27;5.45;;;1.40;99.90;;;;;;6255525;22;20022;-96
2022/12/15 17:48:45;;;;;;;15.85;8.13;;;1.40;99.90;;;;;;6255989;22;20007;-90
2022/12/15 17:51:16;;;;;;;10.68;5.22;;;1.40;99.90;;;;;;6255614;22;20016;-94
2022/12/15 17:53:43;;;;;;;12.68;5.22;;;1.40;99.90;;;;;;6255190;22;20022;-90
2022/12/15 17:56:15;;;;;;;11.70;5.50;;;1.40;99.90;;;;;;6255933;22;20025;-92
2022/12/15 17:58:41;;;;;;;10.10;5.70;;;1.30;99.90;;;;;;6230687;22;20060;-91
2022/12/15 18:01:10;;;;;;;10.15;5.25;;;1.40;99.90;;;;;;6255232;22;20019;-96
2022/12/15 18:03:36;;;;;;;9.30;4.57;;;1.40;99.90;;;;;;6256766;22;20015;-96
2022/12/15 18:06:03;;;;;;;11.07;4.80;;;1.40;99.90;;;;;;6230001;22;20019;-95
2022/12/15 18:08:32;;;;;;;9.60;5.00;;;1.40;99.90;;;;;;6257542;22;20068;-92
2022/12/15 18:10:59;;;;;;;9.55;4.35;;;1.30;99.90;;;;;;6257564;22;20019;-95
2022/12/15 18:13:39;;;;;;;10.33;5.10;;;1.30;99.90;;;;;;6257482;22;20015;-95
2022/12/15 18:16:05;;;;;;;8.73;4.82;;;1.30;99.90;;;;;;6234260;22;20254;-96
2022/12/15 18:18:32;;;;;;;10.32;5.65;;;1.30;99.90;;;;;;6207088;22;20011;-94
2022/12/15 18:21:06;;;;;;;11.60;6.07;;;1.20;99.90;;;;;;6233262;22;20011;-93
2022/12/15 18:23:32;;;;;;;12.95;5.70;;;1.20;99.90;;;;;;6233818;22;20070;-94
2022/12/15 18:25:58;;;;;;;14.77;6.43;;;1.10;99.90;;;;;;6280902;22;20015;-96
2022/12/15 18:28:25;;;;;;;10.52;5.68;;;1.10;99.90;;;;;;6282560;22;20344;-96
2022/12/15 18:30:52;;;;;;;;;;;1.10;99.90;;;;;;6283114;22;20070;-95
2022/12/15 18:33:19;;;;;;;10.20;5.78;;;1.10;99.90;;;;;;6282302;22;20252;-92
2022/12/15 18:35:48;;;;;;;13.05;6.82;;;1.10;99.90;;;;;;6282451;22;20014;-96
2022/12/15 18:38:22;;;;;;;13.93;6.38;;;1.00;99.90;;;;;;6282575;22;20015;-96
2022/12/15 18:40:50;;;;;;;13.23;6.38;;;1.00;99.90;;;;;;6282533;22;20018;-91
2022/12/15 18:43:40;;;;;;;10.77;6.35;;;1.00;99.90;;;;;;6290154;22;20019;-90
2022/12/15 19:09:00;;;;;;;14.95;7.32;;;0.80;99.90;;;;;;6278877;22;20627;-86
2022/12/15 19:11:29;;;;;;;15.32;7.93;;;0.80;99.90;;;;;;6226878;22;20019;-89
2022/12/15 19:13:59;;;;;;;16.08;7.13;;;0.80;99.90;;;;;;6251289;22;20015;-93
2022/12/15 19:16:26;;;;;;;12.57;6.90;;;0.80;99.90;;;;;;6227322;22;20055;-92
2022/12/15 19:29:20;;;;;;;15.82;7.35;;;1.00;99.90;;;;;;6275493;22;20070;-86
2022/12/15 19:31:47;;;;;;;18.88;8.57;;;1.00;99.90;;;;;;6240537;22;20046;-92
2022/12/15 19:34:13;;;;;;;13.85;7.15;;;1.00;99.90;;;;;;6230203;22;20049;-95
2022/12/15 19:36:39;;;;;;;16.95;9.68;;;1.00;99.90;;;;;;6234152;22;20012;-90
2022/12/15 19:39:09;;;;;;;13.77;6.97;;;1.00;99.90;;;;;;6237614;22;20445;-89
2022/12/15 19:41:44;;;;;;;17.35;6.95;;;1.00;99.90;;;;;;6263307;22;20018;-91
2022/12/15 19:44:16;;;;;;;14.32;7.07;;;1.00;99.90;;;;;;6234431;22;20019;-89
2022/12/15 19:46:42;;;;;;;12.68;6.20;;;1.00;99.90;;;;;;6233901;22;20022;-89
2022/12/15 19:49:09;;;;;;;15.27;7.13;;;1.00;99.90;;;;;;6258637;22;20023;-90
2022/12/15 19:51:36;;;;;;;13.90;7.35;;;1.00;99.90;;;;;;6237339;22;20015;-93
2022/12/15 19:54:02;;;;;;;14.98;7.78;;;0.90;99.90;;;;;;6231057;22;20022;-93
2022/12/15 19:56:30;;;;;;;15.13;7.32;;;0.90;99.90;;;;;;6236884;22;20016;-91
2022/12/15 19:58:56;;;;;;;16.10;7.60;;;0.90;99.90;;;;;;6228027;22;20016;-96
2022/12/15 20:01:22;;;;;;;15.80;7.28;;;0.90;99.90;;;;;;6227562;22;20012;-94
2022/12/15 20:03:51;;;;;;;13.18;6.97;;;0.90;99.90;;;;;;6226942;22;20323;-96
2022/12/15 20:06:25;;;;;;;13.48;7.57;;;0.90;99.90;;;;;;6251849;22;20095;-89
2022/12/15 20:08:53;;;;;;;13.52;6.80;;;0.90;99.90;;;;;;6250945;22;20027;-96
2022/12/15 20:11:22;;;;;;;14.10;6.85;;;1.00;99.90;;;;;;6225977;22;20020;-93
2022/12/15 20:13:48;;;;;;;11.82;6.53;;;0.90;99.90;;;;;;6225817;22;20049;-90
2022/12/15 20:16:17;;;;;;;15.07;7.10;;;1.00;99.90;;;;;;6226100;22;20012;-96
2022/12/15 20:18:53;;;;;;;15.10;7.03;;;0.90;99.90;;;;;;6226030;22;20012;-91
2022/12/15 20:21:21;;;;;;;14.43;7.15;;;0.90;99.90;;;;;;6226030;22;20475;-96
2022/12/15 20:23:48;;;;;;;;;;;0.90;99.90;;;;;;6228363;22;20019;-96
2022/12/15 20:26:14;;;;;;;12.63;6.97;;;0.80;99.90;;;;;;6234510;22;19895;-92
2022/12/15 20:28:39;;;;;;;16.23;8.50;;;0.80;99.90;;;;;;6236348;23;20024;-91
2022/12/15 20:31:05;;;;;;;13.43;7.18;;;0.80;99.90;;;;;;6201946;23;20023;-92
2022/12/15 20:33:31;;;;;;;15.50;6.80;;;0.80;99.90;;;;;;6228804;23;20020;-87
2022/12/15 20:35:57;;;;;;;13.97;7.80;;;0.80;99.90;;;;;;6205729;23;20090;-94
2022/12/15 20:38:32;;;;;;;17.90;7.97;;;0.70;99.90;;;;;;6220442;23;20400;-87
2022/12/15 20:41:00;;;;;;;16.52;8.02;;;0.80;99.90;;;;;;6245787;23;20025;-96
2022/12/15 20:43:29;;;;;;;15.40;8.02;;;0.70;99.90;;;;;;6225069;23;20066;-88
2022/12/15 20:46:25;;;;;;;13.95;6.95;;;0.70;99.90;;;;;;6222063;23;20078;-95
2022/12/15 20:48:53;;;;;;;15.38;7.35;;;0.70;99.90;;;;;;6217561;23;20023;-92
2022/12/15 20:51:24;;;;;;;13.70;7.55;;;0.70;99.90;;;;;;6227773;23;20461;-95
2022/12/15 20:53:52;;;;;;;19.38;8.40;;;0.70;99.90;;;;;;6225575;23;20024;-92
2022/12/15 20:56:22;;;;;;;18.98;7.93;;;0.70;99.90;;;;;;6250060;23;20016;-95
2022/12/15 20:58:56;;;;;;;17.23;7.85;;;0.80;99.90;;;;;;6248022;23;20495;-88
2022/12/15 21:01:23;;;;;;;17.95;7.72;;;0.80;99.90;;;;;;6220266;23;20058;-95
2022/12/15 21:03:51;;;;;;;14.52;7.93;;;0.80;99.90;;;;;;6220528;23;20054;-92
2022/12/15 21:06:18;;;;;;;16.80;8.43;;;0.80;99.90;;;;;;6225654;23;20020;-96
2022/12/15 21:08:46;;;;;;;15.23;8.40;;;0.80;99.90;;;;;;6248048;23;20438;-96
2022/12/15 21:11:18;;;;;;;15.48;8.23;;;0.80;99.90;;;;;;6221469;23;20051;-93
2022/12/15 21:13:46;;;;;;;16.65;8.50;;;0.80;99.90;;;;;;6220880;23;20017;-88
2022/12/15 21:16:26;;;;;;;14.88;7.60;;;0.80;99.90;;;;;;6233953;23;20016;-90
2022/12/15 21:18:53;;;;;;;14.90;7.60;;;0.80;99.90;;;;;;6220884;23;20016;-95
2022/12/15 21:21:28;;;;;;;14.68;7.70;;;0.90;99.90;;;;;;6224920;23;20043;-96
2022/12/15 21:23:56;;;;;;;17.48;8.85;;;0.80;99.90;;;;;;6245239;23;20020;-90
2022/12/15 21:26:23;;;;;;;20.95;8.88;;;0.90;99.90;;;;;;6195234;23;20074;-91
2022/12/15 21:28:53;;;;;;;14.15;7.75;;;0.90;99.90;;;;;;6219662;23;20016;-94
2022/12/15 21:31:19;;;;;;;12.95;6.95;;;0.90;99.90;;;;;;6220282;23;20028;-95
2022/12/15 21:33:45;;;;;;;13.95;7.72;;;0.90;99.90;;;;;;6195180;23;20027;-93
2022/12/15 21:36:13;;;;;;;12.43;6.88;;;1.00;99.90;;;;;;6220555;23;20016;-94
2022/12/15 21:38:40;;;;;;;15.23;7.85;;;1.00;99.90;;;;;;6220036;23;20516;-88
2022/12/15 21:41:17;;;;;;;15.43;8.05;;;0.90;99.90;;;;;;6219751;23;20396;-94
2022/12/15 21:43:43;;;;;;;14.55;7.65;;;0.90;99.90;;;;;;6223263;23;20023;-91
2022/12/15 21:46:18;;;;;;;15.25;8.65;;;0.90;99.90;;;;;;6222948;23;20079;-92
2022/12/15 21:51:34;;;;;;;16.90;7.72;;;0.90;99.90;;;;;;6225989;23;20020;-94
2022/12/15 21:54:00;;;;;;;16.08;7.55;;;0.90;99.90;;;;;;6222729;23;20183;-91
2022/12/15 21:56:26;;;;;;;14.50;7.32;;;0.90;99.90;;;;;;6223172;23;20012;-90
2022/12/15 21:58:52;;;;;;;14.57;7.80;;;0.90;99.90;;;;;;6197932;23;20063;-91
2022/12/15 22:01:24;;;;;;;15.55;7.82;;;0.90;99.90;;;;;;6222804;23;20450;-93
2022/12/15 22:03:55;;;;;;;14.88;7.75;;;0.90;99.90;;;;;;6223442;23;20073;-96
2022/12/15 22:06:26;;;;;;;15.93;8.13;;;0.90;99.90;;;;;;6225473;23;20020;-89
2022/12/15 22:08:53;;;;;;;20.08;8.07;;;1.00;99.90;;;;;;6248373;23;20055;-95
2022/12/15 22:11:26;;;;;;;16.02;7.53;;;1.00;99.90;;;;;;6230556;23;20019;-95